createdAt,value
2019-02-04T00:00:20.091Z,0.00
2019-02-04T00:01:20.057Z,0.00
2019-02-04T00:02:19.958Z,0.00
2019-02-04T00:03:19.882Z,0.00
2019-02-04T00:04:19.802Z,0.00
2019-02-04T00:05:19.746Z,0.00
2019-02-04T00:06:19.870Z,0.00
2019-02-04T00:07:19.683Z,0.00
2019-02-04T00:08:19.608Z,0.00
2019-02-04T00:09:19.580Z,0.00
2019-02-04T00:10:19.489Z,0.00
2019-02-04T00:11:19.475Z,0.00
2019-02-04T00:12:19.352Z,0.00
2019-02-04T00:13:19.292Z,0.00
2019-02-04T00:14:19.271Z,0.00
2019-02-04T00:15:19.181Z,0.00
2019-02-04T00:16:19.186Z,0.00
2019-02-04T00:17:19.050Z,0.00
2019-02-04T00:18:19.005Z,0.00
2019-02-04T00:19:18.938Z,0.00
2019-02-04T00:20:18.900Z,0.00
2019-02-04T00:21:18.836Z,0.00
2019-02-04T00:22:18.746Z,0.00
2019-02-04T00:23:18.705Z,0.00
2019-02-04T00:24:18.630Z,0.00
2019-02-04T00:25:21.494Z,0.00
2019-02-04T00:26:18.545Z,0.00
2019-02-04T00:27:18.493Z,0.00
2019-02-04T00:28:18.489Z,0.00
2019-02-04T00:29:18.367Z,0.00
2019-02-04T00:30:18.288Z,0.00
2019-02-04T00:31:18.297Z,0.00
2019-02-04T00:32:18.170Z,0.00
2019-02-04T00:33:18.119Z,0.00
2019-02-04T00:34:18.064Z,0.00
2019-02-04T00:35:17.983Z,0.00
2019-02-04T00:36:17.943Z,0.00
2019-02-04T00:37:17.883Z,0.00
2019-02-04T00:38:17.803Z,0.00
2019-02-04T00:39:17.882Z,0.00
2019-02-04T00:40:17.689Z,0.00
2019-02-04T00:41:17.665Z,0.00
2019-02-04T00:42:17.574Z,0.00
2019-02-04T00:43:17.573Z,0.00
2019-02-04T00:44:17.473Z,0.00
2019-02-04T00:45:17.396Z,0.00
2019-02-04T00:46:17.350Z,0.00
2019-02-04T00:47:17.274Z,0.00
2019-02-04T00:48:17.213Z,0.00
2019-02-04T00:49:17.144Z,0.00
2019-02-04T00:50:17.095Z,0.00
2019-02-04T00:51:17.094Z,0.00
2019-02-04T00:52:16.982Z,0.00
2019-02-04T00:53:16.941Z,0.00
2019-02-04T00:54:16.851Z,0.00
2019-02-04T00:55:16.824Z,0.00
2019-02-04T00:56:16.745Z,0.00
2019-02-04T00:57:16.756Z,0.00
2019-02-04T00:58:16.651Z,0.00
2019-02-04T00:59:16.556Z,0.00
2019-02-04T01:00:16.509Z,0.00
2019-02-04T01:01:16.461Z,0.00
2019-02-04T01:02:16.420Z,0.00
2019-02-04T01:03:16.360Z,0.00
2019-02-04T01:04:16.282Z,0.00
2019-02-04T01:05:16.274Z,0.00
2019-02-04T01:06:16.146Z,0.00
2019-02-04T01:07:16.147Z,0.00
2019-02-04T01:08:16.035Z,0.00
2019-02-04T01:09:15.976Z,0.00
2019-02-04T01:10:15.927Z,0.00
2019-02-04T01:11:15.853Z,0.00
2019-02-04T01:12:15.870Z,0.00
2019-02-04T01:13:15.805Z,0.00
2019-02-04T01:14:15.673Z,0.00
2019-02-04T01:15:15.616Z,0.00
2019-02-04T01:16:15.588Z,0.00
2019-02-04T01:17:15.575Z,0.00
2019-02-04T01:18:15.456Z,0.00
2019-02-04T01:19:15.394Z,0.00
2019-02-04T01:20:15.324Z,0.00
2019-02-04T01:21:15.293Z,0.00
2019-02-04T01:22:15.242Z,0.00
2019-02-04T01:23:15.145Z,0.00
2019-02-04T01:24:15.085Z,0.00
2019-02-04T01:25:15.080Z,0.00
2019-02-04T01:26:14.975Z,0.00
2019-02-04T01:27:14.946Z,0.00
2019-02-04T01:28:14.874Z,0.00
2019-02-04T01:29:14.784Z,0.00
2019-02-04T01:30:14.732Z,0.00
2019-02-04T01:31:14.726Z,0.00
2019-02-04T01:32:14.665Z,0.00
2019-02-04T01:33:14.580Z,0.00
2019-02-04T01:34:14.521Z,0.00
2019-02-04T01:35:14.447Z,0.00
2019-02-04T01:36:14.413Z,0.00
2019-02-04T01:37:14.373Z,0.00
2019-02-04T01:38:14.289Z,0.00
2019-02-04T01:39:14.204Z,0.00
2019-02-04T01:40:14.175Z,0.00
2019-02-04T01:41:14.091Z,0.00
2019-02-04T01:42:14.023Z,0.00
2019-02-04T01:43:14.019Z,0.00
2019-02-04T01:44:13.907Z,0.00
2019-02-04T01:45:13.849Z,0.00
2019-02-04T01:46:13.797Z,0.00
2019-02-04T01:47:14.993Z,0.00
2019-02-04T01:48:13.805Z,0.00
2019-02-04T01:49:13.621Z,0.00
2019-02-04T01:50:13.545Z,0.00
2019-02-04T01:51:13.503Z,0.00
2019-02-04T01:52:13.432Z,0.00
2019-02-04T01:53:13.463Z,0.00
2019-02-04T01:54:13.321Z,0.00
2019-02-04T01:55:13.252Z,0.00
2019-02-04T01:56:13.219Z,0.00
2019-02-04T01:57:13.135Z,0.00
2019-02-04T01:58:13.120Z,0.00
2019-02-04T01:59:13.047Z,0.00
2019-02-04T02:00:12.957Z,0.00
2019-02-04T02:01:12.921Z,0.00
2019-02-04T02:02:12.922Z,0.00
2019-02-04T02:03:12.836Z,0.00
2019-02-04T02:04:12.797Z,0.00
2019-02-04T02:05:12.687Z,0.00
2019-02-04T02:06:12.645Z,0.00
2019-02-04T02:07:12.542Z,0.00
2019-02-04T02:08:12.516Z,0.00
2019-02-04T02:09:12.474Z,0.00
2019-02-04T02:10:12.378Z,0.00
2019-02-04T02:11:12.303Z,0.00
2019-02-04T02:12:12.263Z,0.00
2019-02-04T02:13:12.226Z,0.00
2019-02-04T02:14:12.161Z,0.00
2019-02-04T02:15:12.109Z,0.00
2019-02-04T02:16:12.038Z,0.00
2019-02-04T02:17:11.997Z,0.00
2019-02-04T02:18:11.928Z,0.00
2019-02-04T02:19:11.853Z,0.00
2019-02-04T02:20:11.777Z,0.00
2019-02-04T02:21:11.725Z,0.00
2019-02-04T02:22:11.684Z,0.00
2019-02-04T02:23:11.660Z,0.00
2019-02-04T02:24:11.539Z,0.00
2019-02-04T02:25:11.505Z,0.00
2019-02-04T02:26:11.450Z,0.00
2019-02-04T02:27:11.379Z,0.00
2019-02-04T02:28:11.311Z,0.00
2019-02-04T02:29:11.305Z,0.00
2019-02-04T02:30:11.276Z,0.00
2019-02-04T02:31:11.128Z,0.00
2019-02-04T02:32:11.109Z,0.00
2019-02-04T02:33:11.032Z,0.00
2019-02-04T02:34:10.996Z,0.00
2019-02-04T02:35:10.901Z,0.00
2019-02-04T02:36:10.832Z,0.00
2019-02-04T02:37:10.773Z,0.00
2019-02-04T02:38:10.721Z,0.00
2019-02-04T02:39:10.680Z,0.00
2019-02-04T02:40:10.596Z,0.00
2019-02-04T02:41:10.613Z,0.00
2019-02-04T02:42:10.493Z,0.00
2019-02-04T02:43:11.773Z,0.00
2019-02-04T02:44:10.397Z,0.00
2019-02-04T02:45:10.308Z,0.00
2019-02-04T02:46:10.253Z,0.00
2019-02-04T02:47:10.217Z,0.00
2019-02-04T02:48:10.202Z,0.00
2019-02-04T02:49:10.100Z,0.00
2019-02-04T02:50:10.052Z,0.00
2019-02-04T02:51:09.965Z,0.00
2019-02-04T02:52:09.899Z,0.00
2019-02-04T02:53:09.856Z,0.00
2019-02-04T02:54:09.812Z,0.00
2019-02-04T02:55:09.726Z,0.00
2019-02-04T02:56:09.648Z,0.00
2019-02-04T02:57:09.609Z,0.00
2019-02-04T02:58:09.534Z,0.00
2019-02-04T02:59:09.494Z,0.00
2019-02-04T03:00:09.448Z,0.00
2019-02-04T03:01:09.375Z,0.00
2019-02-04T03:02:09.297Z,0.00
2019-02-04T03:03:09.305Z,0.00
2019-02-04T03:04:09.248Z,0.00
2019-02-04T03:05:09.140Z,0.00
2019-02-04T03:06:09.069Z,0.00
2019-02-04T03:07:08.998Z,0.00
2019-02-04T03:08:08.973Z,0.00
2019-02-04T03:09:08.922Z,0.00
2019-02-04T03:10:08.854Z,0.00
2019-02-04T03:11:08.793Z,0.00
2019-02-04T03:12:08.713Z,0.00
2019-02-04T03:13:08.647Z,0.00
2019-02-04T03:14:08.650Z,0.00
2019-02-04T03:15:08.529Z,0.00
2019-02-04T03:16:08.473Z,0.00
2019-02-04T03:17:08.410Z,0.00
2019-02-04T03:18:08.346Z,0.00
2019-02-04T03:19:08.288Z,0.00
2019-02-04T03:20:08.300Z,0.00
2019-02-04T03:21:08.206Z,0.00
2019-02-04T03:22:08.123Z,0.00
2019-02-04T03:23:08.076Z,0.00
2019-02-04T03:24:07.995Z,0.00
2019-02-04T03:25:07.976Z,0.00
2019-02-04T03:26:07.892Z,0.00
2019-02-04T03:27:07.817Z,0.00
2019-02-04T03:28:07.778Z,0.00
2019-02-04T03:29:07.706Z,0.00
2019-02-04T03:30:07.677Z,0.00
2019-02-04T03:31:07.588Z,0.00
2019-02-04T03:32:07.523Z,0.00
2019-02-04T03:33:07.459Z,0.00
2019-02-04T03:34:07.426Z,0.00
2019-02-04T03:35:07.374Z,0.00
2019-02-04T03:36:07.367Z,0.00
2019-02-04T03:37:07.281Z,0.00
2019-02-04T03:38:07.291Z,0.00
2019-02-04T03:39:07.114Z,0.00
2019-02-04T03:40:07.117Z,0.00
2019-02-04T03:41:07.092Z,0.00
2019-02-04T03:42:06.924Z,0.00
2019-02-04T03:43:06.880Z,0.00
2019-02-04T03:44:06.815Z,0.00
2019-02-04T03:45:06.797Z,0.00
2019-02-04T03:46:06.697Z,0.00
2019-02-04T03:47:06.645Z,0.00
2019-02-04T03:48:09.589Z,0.00
2019-02-04T03:49:06.522Z,0.00
2019-02-04T03:50:06.504Z,0.00
2019-02-04T03:51:06.418Z,0.00
2019-02-04T03:52:06.340Z,0.00
2019-02-04T03:53:06.278Z,0.00
2019-02-04T03:54:06.239Z,0.00
2019-02-04T03:55:06.193Z,0.00
2019-02-04T03:56:06.099Z,0.00
2019-02-04T03:57:06.053Z,0.00
2019-02-04T03:58:06.026Z,0.00
2019-02-04T03:59:05.981Z,0.00
2019-02-04T04:00:05.913Z,0.00
2019-02-04T04:01:05.828Z,0.00
2019-02-04T04:02:05.752Z,0.00
2019-02-04T04:03:05.709Z,0.00
2019-02-04T04:04:05.647Z,0.00
2019-02-04T04:05:05.607Z,0.00
2019-02-04T04:06:05.523Z,0.00
2019-02-04T04:07:05.465Z,0.00
2019-02-04T04:08:05.407Z,0.00
2019-02-04T04:09:05.337Z,0.00
2019-02-04T04:10:05.368Z,0.00
2019-02-04T04:11:05.250Z,0.00
2019-02-04T04:12:05.274Z,0.00
2019-02-04T04:13:05.127Z,0.00
2019-02-04T04:14:05.061Z,0.00
2019-02-04T04:15:05.065Z,0.00
2019-02-04T04:16:04.971Z,0.00
2019-02-04T04:17:04.873Z,0.00
2019-02-04T04:18:15.042Z,0.00
2019-02-04T04:19:04.772Z,0.00
2019-02-04T04:20:04.726Z,0.00
2019-02-04T04:21:04.681Z,0.00
2019-02-04T04:22:04.588Z,0.00
2019-02-04T04:23:04.525Z,0.00
2019-02-04T04:24:04.457Z,0.00
2019-02-04T04:25:04.499Z,0.00
2019-02-04T04:26:04.411Z,0.00
2019-02-04T04:27:04.317Z,0.00
2019-02-04T04:28:04.225Z,0.00
2019-02-04T04:29:04.178Z,0.00
2019-02-04T04:30:04.129Z,0.00
2019-02-04T04:31:04.066Z,0.00
2019-02-04T04:32:04.036Z,0.00
2019-02-04T04:33:03.989Z,0.00
2019-02-04T04:34:03.874Z,0.00
2019-02-04T04:35:03.806Z,0.00
2019-02-04T04:36:03.796Z,0.00
2019-02-04T04:37:03.727Z,0.00
2019-02-04T04:38:03.629Z,0.00
2019-02-04T04:39:03.598Z,0.00
2019-02-04T04:40:03.540Z,0.00
2019-02-04T04:41:03.520Z,0.00
2019-02-04T04:42:03.390Z,0.00
2019-02-04T04:43:03.355Z,0.00
2019-02-04T04:44:03.280Z,0.00
2019-02-04T04:45:03.215Z,0.00
2019-02-04T04:46:03.256Z,0.00
2019-02-04T04:47:03.123Z,0.00
2019-02-04T04:48:03.041Z,0.00
2019-02-04T04:49:02.993Z,0.00
2019-02-04T04:50:02.990Z,0.00
2019-02-04T04:51:02.940Z,0.00
2019-02-04T04:52:02.817Z,0.00
2019-02-04T04:53:02.771Z,0.00
2019-02-04T04:54:02.688Z,0.00
2019-02-04T04:55:02.634Z,0.00
2019-02-04T04:56:02.621Z,0.00
2019-02-04T04:57:02.525Z,0.00
2019-02-04T04:58:02.482Z,0.00
2019-02-04T04:59:02.439Z,0.00
2019-02-04T05:00:02.384Z,0.00
2019-02-04T05:01:02.323Z,0.00
2019-02-04T05:02:02.235Z,0.00
2019-02-04T05:03:02.187Z,0.00
2019-02-04T05:04:02.105Z,0.00
2019-02-04T05:05:02.045Z,0.00
2019-02-04T05:06:02.038Z,0.00
2019-02-04T05:07:01.957Z,0.00
2019-02-04T05:08:01.883Z,0.00
2019-02-04T05:09:01.806Z,0.00
2019-02-04T05:10:01.773Z,0.00
2019-02-04T05:11:01.728Z,0.00
2019-02-04T05:12:01.715Z,0.00
2019-02-04T05:13:01.584Z,0.00
2019-02-04T05:14:01.532Z,0.00
2019-02-04T05:15:01.490Z,0.00
2019-02-04T05:16:01.459Z,0.00
2019-02-04T05:17:01.342Z,0.00
2019-02-04T05:18:01.316Z,0.00
2019-02-04T05:19:01.226Z,0.00
2019-02-04T05:20:01.209Z,0.00
2019-02-04T05:21:01.130Z,0.00
2019-02-04T05:22:01.083Z,0.00
2019-02-04T05:23:00.992Z,0.00
2019-02-04T05:24:00.961Z,0.00
2019-02-04T05:25:00.899Z,0.00
2019-02-04T05:26:00.851Z,0.00
2019-02-04T05:27:00.768Z,0.00
2019-02-04T05:28:00.726Z,0.00
2019-02-04T05:29:00.680Z,0.00
2019-02-04T05:30:00.613Z,0.00
2019-02-04T05:31:00.548Z,0.00
2019-02-04T05:32:00.478Z,0.00
2019-02-04T05:33:00.398Z,0.00
2019-02-04T05:34:00.344Z,0.00
2019-02-04T05:35:00.335Z,0.00
2019-02-04T05:36:00.304Z,0.00
2019-02-04T05:37:00.223Z,0.00
2019-02-04T05:38:00.111Z,0.00
2019-02-04T05:39:00.057Z,0.00
2019-02-04T05:40:00.006Z,0.00
2019-02-04T05:40:59.936Z,0.00
2019-02-04T05:41:59.892Z,0.00
2019-02-04T05:42:59.852Z,0.00
2019-02-04T05:43:59.762Z,0.00
2019-02-04T05:44:59.736Z,0.00
2019-02-04T05:45:59.673Z,0.00
2019-02-04T05:46:59.615Z,0.00
2019-02-04T05:47:59.529Z,0.00
2019-02-04T05:48:59.531Z,0.00
2019-02-04T05:49:59.424Z,0.00
2019-02-04T05:50:59.389Z,0.00
2019-02-04T05:51:59.334Z,0.00
2019-02-04T05:52:59.221Z,0.00
2019-02-04T05:53:59.203Z,0.00
2019-02-04T05:54:59.113Z,0.00
2019-02-04T05:55:59.051Z,0.00
2019-02-04T05:56:59.091Z,0.00
2019-02-04T05:57:58.933Z,0.00
2019-02-04T05:58:58.870Z,0.00
2019-02-04T05:59:58.860Z,0.00
2019-02-04T06:00:58.765Z,0.00
2019-02-04T06:01:58.733Z,0.00
2019-02-04T06:02:58.693Z,0.00
2019-02-04T06:03:58.600Z,0.00
2019-02-04T06:04:58.523Z,0.00
2019-02-04T06:05:58.498Z,0.00
2019-02-04T06:06:58.468Z,0.00
2019-02-04T06:07:58.408Z,0.00
2019-02-04T06:08:58.342Z,0.00
2019-02-04T06:09:58.252Z,0.00
2019-02-04T06:10:58.199Z,0.00
2019-02-04T06:11:58.107Z,0.00
2019-02-04T06:12:58.083Z,0.00
2019-02-04T06:13:57.992Z,0.00
2019-02-04T06:14:57.933Z,0.00
2019-02-04T06:15:57.874Z,0.00
2019-02-04T06:16:57.815Z,0.00
2019-02-04T06:17:57.856Z,0.00
2019-02-04T06:19:00.916Z,0.00
2019-02-04T06:19:57.654Z,0.00
2019-02-04T06:20:57.611Z,0.00
2019-02-04T06:21:57.519Z,0.00
2019-02-04T06:22:57.504Z,0.00
2019-02-04T06:23:57.430Z,0.00
2019-02-04T06:24:57.378Z,0.00
2019-02-04T06:25:57.331Z,0.00
2019-02-04T06:26:57.229Z,0.00
2019-02-04T06:27:57.244Z,0.00
2019-02-04T06:28:57.127Z,0.00
2019-02-04T06:29:57.070Z,0.00
2019-02-04T06:30:57.000Z,0.00
2019-02-04T06:31:56.974Z,0.00
2019-02-04T06:32:56.908Z,4.00
2019-02-04T06:33:56.870Z,4.00
2019-02-04T06:34:56.783Z,0.00
2019-02-04T06:35:56.706Z,4.00
2019-02-04T06:36:56.657Z,4.00
2019-02-04T06:37:56.761Z,4.00
2019-02-04T06:38:56.525Z,4.00
2019-02-04T06:39:56.475Z,4.00
2019-02-04T06:40:56.446Z,8.00
2019-02-04T06:41:56.348Z,8.00
2019-02-04T06:42:56.368Z,8.00
2019-02-04T06:43:56.268Z,12.00
2019-02-04T06:44:56.172Z,12.00
2019-02-04T06:45:56.109Z,16.00
2019-02-04T06:46:56.061Z,16.00
2019-02-04T06:47:56.117Z,20.00
2019-02-04T06:48:55.946Z,24.00
2019-02-04T06:49:55.881Z,28.00
2019-02-04T06:50:55.847Z,28.00
2019-02-04T06:51:55.797Z,36.00
2019-02-04T06:52:55.700Z,44.00
2019-02-04T06:53:55.673Z,48.00
2019-02-04T06:54:55.588Z,56.00
2019-02-04T06:55:55.519Z,56.00
2019-02-04T06:56:55.478Z,64.00
2019-02-04T06:57:55.426Z,72.00
2019-02-04T06:58:55.395Z,80.00
2019-02-04T06:59:55.324Z,88.00
2019-02-04T07:00:55.359Z,96.00
2019-02-04T07:01:57.689Z,108.00
2019-02-04T07:02:55.106Z,116.00
2019-02-04T07:03:55.074Z,124.00
2019-02-04T07:04:55.011Z,136.00
2019-02-04T07:05:54.982Z,144.00
2019-02-04T07:06:55.007Z,160.00
2019-02-04T07:07:54.817Z,172.00
2019-02-04T07:08:54.841Z,184.00
2019-02-04T07:09:54.703Z,196.00
2019-02-04T07:10:54.702Z,208.00
2019-02-04T07:11:54.619Z,220.00
2019-02-04T07:12:54.580Z,240.00
2019-02-04T07:13:54.501Z,252.00
2019-02-04T07:14:54.401Z,264.00
2019-02-04T07:15:54.367Z,280.00
2019-02-04T07:16:54.312Z,296.00
2019-02-04T07:17:54.245Z,312.00
2019-02-04T07:18:54.198Z,328.00
2019-02-04T07:19:54.122Z,352.00
2019-02-04T07:20:54.053Z,364.00
2019-02-04T07:21:54.060Z,388.00
2019-02-04T07:22:53.975Z,408.00
2019-02-04T07:23:53.892Z,424.00
2019-02-04T07:24:53.825Z,448.00
2019-02-04T07:25:53.758Z,468.00
2019-02-04T07:26:53.917Z,488.00
2019-02-04T07:27:53.669Z,508.00
2019-02-04T07:28:53.617Z,532.00
2019-02-04T07:29:53.526Z,556.00
2019-02-04T07:30:53.463Z,580.00
2019-02-04T07:31:53.438Z,604.00
2019-02-04T07:32:53.365Z,628.00
2019-02-04T07:33:53.317Z,648.00
2019-02-04T07:34:53.226Z,668.00
2019-02-04T07:35:53.172Z,692.00
2019-02-04T07:36:53.106Z,720.00
2019-02-04T07:37:53.057Z,744.00
2019-02-04T07:38:53.026Z,772.00
2019-02-04T07:39:52.930Z,808.00
2019-02-04T07:40:52.879Z,844.00
2019-02-04T07:41:52.824Z,880.00
2019-02-04T07:42:52.767Z,916.00
2019-02-04T07:43:52.708Z,952.00
2019-02-04T07:44:52.658Z,992.00
2019-02-04T07:45:52.584Z,1028.00
2019-02-04T07:46:52.602Z,1072.00
2019-02-04T07:47:52.462Z,1112.00
2019-02-04T07:48:52.425Z,1144.00
2019-02-04T07:49:52.378Z,1184.00
2019-02-04T07:50:52.293Z,1220.00
2019-02-04T07:51:52.228Z,1244.00
2019-02-04T07:52:52.174Z,1272.00
2019-02-04T07:53:52.109Z,1296.00
2019-02-04T07:54:52.125Z,1332.00
2019-02-04T07:55:51.995Z,1372.00
2019-02-04T07:56:51.937Z,1404.00
2019-02-04T07:57:51.940Z,1432.00
2019-02-04T07:58:51.827Z,1472.00
2019-02-04T07:59:51.792Z,1504.00
2019-02-04T08:00:51.706Z,1532.00
2019-02-04T08:01:51.650Z,1564.00
2019-02-04T08:02:51.590Z,1604.00
2019-02-04T08:03:51.525Z,1636.00
2019-02-04T08:04:51.496Z,1644.00
2019-02-04T08:05:51.400Z,1680.00
2019-02-04T08:06:51.360Z,1708.00
2019-02-04T08:07:51.427Z,1736.00
2019-02-04T08:08:51.285Z,1768.00
2019-02-04T08:09:51.202Z,1796.00
2019-02-04T08:10:51.183Z,1828.00
2019-02-04T08:11:51.058Z,1852.00
2019-02-04T08:13:00.966Z,1872.00
2019-02-04T08:13:50.989Z,1900.00
2019-02-04T08:14:50.986Z,1936.00
2019-02-04T08:15:50.894Z,1960.00
2019-02-04T08:16:50.769Z,1980.00
2019-02-04T08:17:50.794Z,1996.00
2019-02-04T08:18:50.665Z,2016.00
2019-02-04T08:19:50.625Z,2040.00
2019-02-04T08:20:50.551Z,2048.00
2019-02-04T08:21:50.469Z,2048.00
2019-02-04T08:22:50.438Z,2060.00
2019-02-04T08:23:50.472Z,2080.00
2019-02-04T08:24:50.418Z,2088.00
2019-02-04T08:25:50.237Z,2084.00
2019-02-04T08:26:50.191Z,2088.00
2019-02-04T08:27:50.203Z,2084.00
2019-02-04T08:28:50.069Z,2088.00
2019-02-04T08:29:50.086Z,2092.00
2019-02-04T08:30:49.972Z,2112.00
2019-02-04T08:31:49.915Z,2136.00
2019-02-04T08:32:49.920Z,2176.00
2019-02-04T08:33:49.822Z,2236.00
2019-02-04T08:34:49.762Z,2292.00
2019-02-04T08:35:49.698Z,2332.00
2019-02-04T08:36:49.602Z,2372.00
2019-02-04T08:37:49.619Z,2404.00
2019-02-04T08:38:49.486Z,2436.00
2019-02-04T08:39:49.451Z,2472.00
2019-02-04T08:40:49.416Z,2496.00
2019-02-04T08:41:49.314Z,2500.00
2019-02-04T08:42:49.322Z,2492.00
2019-02-04T08:43:49.212Z,2476.00
2019-02-04T08:44:49.149Z,2464.00
2019-02-04T08:45:49.223Z,2464.00
2019-02-04T08:46:49.044Z,2460.00
2019-02-04T08:47:48.984Z,2468.00
2019-02-04T08:48:48.911Z,2500.00
2019-02-04T08:49:58.087Z,2524.00
2019-02-04T08:50:48.919Z,2544.00
2019-02-04T08:51:48.740Z,2580.00
2019-02-04T08:52:48.765Z,2596.00
2019-02-04T08:53:48.646Z,2628.00
2019-02-04T08:54:48.584Z,2676.00
2019-02-04T08:55:48.586Z,2724.00
2019-02-04T08:56:48.450Z,2780.00
2019-02-04T08:57:48.398Z,2812.00
2019-02-04T08:58:48.354Z,2840.00
2019-02-04T08:59:48.274Z,2880.00
2019-02-04T09:00:48.277Z,2908.00
2019-02-04T09:01:48.167Z,2920.00
2019-02-04T09:02:48.102Z,2956.00
2019-02-04T09:03:48.069Z,3020.00
2019-02-04T09:04:48.011Z,3068.00
2019-02-04T09:05:47.958Z,3088.00
2019-02-04T09:06:47.872Z,3096.00
2019-02-04T09:07:47.821Z,3104.00
2019-02-04T09:08:47.801Z,3120.00
2019-02-04T09:09:47.728Z,3132.00
2019-02-04T09:10:47.674Z,3124.00
2019-02-04T09:11:47.588Z,3108.00
2019-02-04T09:12:47.556Z,3092.00
2019-02-04T09:13:47.482Z,3096.00
2019-02-04T09:14:47.458Z,3100.00
2019-02-04T09:15:47.409Z,3092.00
2019-02-04T09:16:47.305Z,3092.00
2019-02-04T09:17:47.278Z,3100.00
2019-02-04T09:18:47.181Z,3108.00
2019-02-04T09:19:47.140Z,3124.00
2019-02-04T09:20:47.095Z,3152.00
2019-02-04T09:21:47.073Z,3180.00
2019-02-04T09:22:46.955Z,3204.00
2019-02-04T09:23:46.895Z,3220.00
2019-02-04T09:24:46.838Z,3232.00
2019-02-04T09:25:46.869Z,3248.00
2019-02-04T09:26:46.736Z,3260.00
2019-02-04T09:27:46.665Z,3252.00
2019-02-04T09:28:46.622Z,3256.00
2019-02-04T09:29:46.562Z,3268.00
2019-02-04T09:30:46.528Z,3272.00
2019-02-04T09:31:46.456Z,3276.00
2019-02-04T09:32:46.390Z,3300.00
2019-02-04T09:33:46.325Z,3356.00
2019-02-04T09:34:46.276Z,3388.00
2019-02-04T09:35:46.301Z,3408.00
2019-02-04T09:36:46.201Z,3448.00
2019-02-04T09:37:46.112Z,3492.00
2019-02-04T09:38:46.037Z,3556.00
2019-02-04T09:39:46.473Z,3616.00
2019-02-04T09:40:45.942Z,3664.00
2019-02-04T09:41:45.904Z,3740.00
2019-02-04T09:42:45.817Z,3772.00
2019-02-04T09:43:45.751Z,3796.00
2019-02-04T09:44:45.698Z,3816.00
2019-02-04T09:45:45.679Z,3864.00
2019-02-04T09:46:45.580Z,3888.00
2019-02-04T09:47:45.520Z,3908.00
2019-02-04T09:48:45.471Z,3916.00
2019-02-04T09:49:45.410Z,3916.00
2019-02-04T09:50:45.439Z,3912.00
2019-02-04T09:51:45.292Z,3936.00
2019-02-04T09:52:45.239Z,3980.00
2019-02-04T09:53:45.171Z,4008.00
2019-02-04T09:54:45.122Z,4016.00
2019-02-04T09:55:45.092Z,4028.00
2019-02-04T09:56:45.041Z,4044.00
2019-02-04T09:57:44.960Z,4064.00
2019-02-04T09:58:44.944Z,4048.00
2019-02-04T09:59:44.914Z,4048.00
2019-02-04T10:00:44.783Z,4040.00
2019-02-04T10:01:44.750Z,4068.00
2019-02-04T10:02:44.702Z,4112.00
2019-02-04T10:03:44.617Z,4148.00
2019-02-04T10:04:44.562Z,4152.00
2019-02-04T10:05:44.520Z,4132.00
2019-02-04T10:06:44.492Z,4116.00
2019-02-04T10:07:44.383Z,4108.00
2019-02-04T10:08:44.321Z,4104.00
2019-02-04T10:09:44.289Z,4100.00
2019-02-04T10:10:44.221Z,4088.00
2019-02-04T10:11:44.192Z,4076.00
2019-02-04T10:12:44.098Z,4056.00
2019-02-04T10:13:44.107Z,4032.00
2019-02-04T10:14:43.998Z,4020.00
2019-02-04T10:15:45.925Z,4020.00
2019-02-04T10:16:43.931Z,4000.00
2019-02-04T10:17:43.864Z,3996.00
2019-02-04T10:18:43.770Z,3988.00
2019-02-04T10:19:43.754Z,3996.00
2019-02-04T10:20:43.676Z,4032.00
2019-02-04T10:21:43.682Z,4072.00
2019-02-04T10:22:43.530Z,4112.00
2019-02-04T10:23:43.506Z,4168.00
2019-02-04T10:24:43.420Z,4220.00
2019-02-04T10:25:43.467Z,4280.00
2019-02-04T10:26:43.342Z,4324.00
2019-02-04T10:27:43.276Z,4368.00
2019-02-04T10:28:43.221Z,4396.00
2019-02-04T10:29:43.151Z,4424.00
2019-02-04T10:30:43.107Z,4460.00
2019-02-04T10:31:43.046Z,4496.00
2019-02-04T10:32:44.405Z,4544.00
2019-02-04T10:33:43.067Z,4612.00
2019-02-04T10:34:42.856Z,4636.00
2019-02-04T10:35:42.799Z,4668.00
2019-02-04T10:36:42.758Z,4692.00
2019-02-04T10:37:42.747Z,4724.00
2019-02-04T10:38:42.639Z,4752.00
2019-02-04T10:39:42.567Z,4760.00
2019-02-04T10:40:42.542Z,4784.00
2019-02-04T10:41:42.502Z,4812.00
2019-02-04T10:42:42.392Z,4840.00
2019-02-04T10:43:42.382Z,4860.00
2019-02-04T10:44:42.326Z,4864.00
2019-02-04T10:45:42.239Z,4856.00
2019-02-04T10:46:42.247Z,4852.00
2019-02-04T10:47:42.187Z,4848.00
2019-02-04T10:48:42.085Z,4844.00
2019-02-04T10:49:42.168Z,4840.00
2019-02-04T10:50:46.113Z,4844.00
2019-02-04T10:51:41.912Z,4836.00
2019-02-04T10:52:41.876Z,4816.00
2019-02-04T10:53:41.827Z,4816.00
2019-02-04T10:54:41.799Z,4812.00
2019-02-04T10:55:41.774Z,4796.00
2019-02-04T10:56:41.672Z,4780.00
2019-02-04T10:57:41.639Z,4772.00
2019-02-04T10:58:41.532Z,4756.00
2019-02-04T10:59:41.441Z,4760.00
2019-02-04T11:00:41.412Z,4772.00
2019-02-04T11:01:41.434Z,4784.00
2019-02-04T11:02:41.308Z,4820.00
2019-02-04T11:03:41.217Z,4844.00
2019-02-04T11:04:41.145Z,4896.00
2019-02-04T11:05:41.141Z,4948.00
2019-02-04T11:06:41.070Z,4984.00
2019-02-04T11:07:41.057Z,5008.00
2019-02-04T11:08:40.979Z,5012.00
2019-02-04T11:09:40.882Z,5052.00
2019-02-04T11:10:40.836Z,5036.00
2019-02-04T11:11:40.856Z,5048.00
2019-02-04T11:12:40.773Z,5056.00
2019-02-04T11:13:40.752Z,5048.00
2019-02-04T11:14:40.725Z,5048.00
2019-02-04T11:15:40.545Z,5048.00
2019-02-04T11:16:40.470Z,5056.00
2019-02-04T11:17:40.446Z,5068.00
2019-02-04T11:18:40.370Z,5068.00
2019-02-04T11:19:40.327Z,5068.00
2019-02-04T11:20:40.391Z,5072.00
2019-02-04T11:21:40.295Z,5048.00
2019-02-04T11:22:40.212Z,5020.00
2019-02-04T11:23:40.167Z,4976.00
2019-02-04T11:24:40.100Z,4944.00
2019-02-04T11:25:40.011Z,4940.00
2019-02-04T11:26:39.903Z,4944.00
2019-02-04T11:27:39.906Z,4968.00
2019-02-04T11:28:39.942Z,4988.00
2019-02-04T11:29:39.751Z,5016.00
2019-02-04T11:30:39.686Z,5040.00
2019-02-04T11:31:39.680Z,5048.00
2019-02-04T11:32:39.661Z,5048.00
2019-02-04T11:33:39.577Z,5052.00
2019-02-04T11:34:39.491Z,5036.00
2019-02-04T11:35:39.423Z,5016.00
2019-02-04T11:36:39.380Z,5012.00
2019-02-04T11:37:39.349Z,5000.00
2019-02-04T11:38:39.272Z,4992.00
2019-02-04T11:39:39.188Z,4972.00
2019-02-04T11:40:39.151Z,4944.00
2019-02-04T11:41:39.089Z,4924.00
2019-02-04T11:42:39.152Z,4916.00
2019-02-04T11:43:39.042Z,4932.00
2019-02-04T11:44:38.936Z,4956.00
2019-02-04T11:45:38.868Z,4964.00
2019-02-04T11:46:38.793Z,4952.00
2019-02-04T11:47:38.798Z,4932.00
2019-02-04T11:48:38.756Z,4908.00
2019-02-04T11:49:38.711Z,4896.00
2019-02-04T11:50:38.589Z,4884.00
2019-02-04T11:51:38.516Z,4860.00
2019-02-04T11:52:38.457Z,4840.00
2019-02-04T11:53:38.452Z,4828.00
2019-02-04T11:54:38.330Z,4824.00
2019-02-04T11:55:38.296Z,4824.00
2019-02-04T11:56:38.239Z,4824.00
2019-02-04T11:57:38.166Z,4820.00
2019-02-04T11:58:38.145Z,4816.00
2019-02-04T11:59:38.054Z,4808.00
2019-02-04T12:00:38.026Z,4784.00
2019-02-04T12:01:37.986Z,4756.00
2019-02-04T12:02:37.910Z,4736.00
2019-02-04T12:03:37.881Z,4736.00
2019-02-04T12:04:37.767Z,4744.00
2019-02-04T12:05:37.715Z,4760.00
2019-02-04T12:06:37.655Z,4780.00
2019-02-04T12:07:37.642Z,4796.00
2019-02-04T12:08:37.581Z,4808.00
2019-02-04T12:09:37.485Z,4832.00
2019-02-04T12:10:37.465Z,4868.00
2019-02-04T12:11:37.390Z,4908.00
2019-02-04T12:12:37.396Z,4944.00
2019-02-04T12:13:37.363Z,4972.00
2019-02-04T12:14:37.210Z,4992.00
2019-02-04T12:15:37.153Z,5000.00
2019-02-04T12:16:37.166Z,4996.00
2019-02-04T12:17:37.087Z,4996.00
2019-02-04T12:18:37.061Z,4996.00
2019-02-04T12:19:36.944Z,4996.00
2019-02-04T12:20:39.830Z,5004.00
2019-02-04T12:21:36.819Z,5012.00
2019-02-04T12:22:36.872Z,5004.00
2019-02-04T12:23:36.725Z,4988.00
2019-02-04T12:24:36.643Z,4968.00
2019-02-04T12:25:36.612Z,4944.00
2019-02-04T12:26:36.536Z,4932.00
2019-02-04T12:27:36.483Z,4936.00
2019-02-04T12:28:36.468Z,4916.00
2019-02-04T12:29:36.360Z,4904.00
2019-02-04T12:30:36.406Z,4916.00
2019-02-04T12:31:36.293Z,4936.00
2019-02-04T12:32:36.200Z,4960.00
2019-02-04T12:33:36.156Z,4988.00
2019-02-04T12:34:36.113Z,4996.00
2019-02-04T12:35:36.035Z,4992.00
2019-02-04T12:36:35.980Z,4980.00
2019-02-04T12:37:35.919Z,4956.00
2019-02-04T12:38:35.872Z,4928.00
2019-02-04T12:39:35.838Z,4912.00
2019-02-04T12:40:35.757Z,4912.00
2019-02-04T12:41:35.741Z,4916.00
2019-02-04T12:42:35.650Z,4912.00
2019-02-04T12:43:35.581Z,4912.00